Time;durP1;ratioP1;P1;durP2;ratioP2;P2;SDS_P1;SDS_P2;PMS_P1;PMS_P2;Temp;Humidity;BMP_temperature;BMP_pressure;BME280_temperature;BME280_humidity;BME280_pressure;Samples;Min_cycle;Max_cycle;Signal;HPM_P1;HPM_P2
2022/09/09 00:00:26;;;;;;;;;1.00;1.00;;;;;17.87;64.48;99178.00;5013412;28;8862;-83
2022/09/09 00:02:54;;;;;;;;;0.00;0.00;;;;;17.79;64.91;99175.41;5012970;28;8828;-83
2022/09/09 00:05:22;;;;;;;;;0.00;0.00;;;;;17.77;64.42;99164.00;5013464;28;8816;-83
2022/09/09 00:07:50;;;;;;;;;0.60;0.60;;;;;17.75;64.68;99169.56;5012801;28;8835;-83
2022/09/09 00:10:18;;;;;;;;;1.00;1.00;;;;;17.74;64.48;99169.75;5012888;28;8827;-83
2022/09/09 00:12:46;;;;;;;;;0.00;0.00;;;;;17.72;64.47;99164.56;5016779;28;8829;-83
2022/09/09 00:15:14;;;;;;;;;0.00;0.00;;;;;17.69;65.04;99156.84;5016102;28;8859;-83
2022/09/09 00:17:41;;;;;;;;;0.60;0.60;;;;;17.67;65.17;99150.81;5017022;28;8853;-84
2022/09/09 00:20:09;;;;;;;;;0.20;0.20;;;;;17.62;65.09;99147.81;5016340;28;8860;-83
2022/09/09 00:22:37;;;;;;;;;0.60;0.60;;;;;17.58;65.07;99151.94;5016549;28;8832;-83
2022/09/09 00:25:04;;;;;;;;;1.20;0.60;;;;;17.54;65.70;99157.88;5016084;28;8844;-84
2022/09/09 00:27:32;;;;;;;;;0.60;0.60;;;;;17.49;65.67;99142.28;5016377;28;8820;-83
2022/09/09 00:30:00;;;;;;;;;0.40;0.40;;;;;17.46;65.25;99145.31;5016095;28;8862;-83
2022/09/09 00:32:28;;;;;;;;;0.00;0.00;;;;;17.39;65.70;99139.00;5016482;28;8836;-83
2022/09/09 00:34:55;;;;;;;;;1.00;1.00;;;;;17.35;66.15;99140.38;5015862;28;8828;-83
2022/09/09 00:37:23;;;;;;;;;0.00;0.00;;;;;17.32;66.50;99148.78;5015877;28;9033;-83
2022/09/09 00:39:54;;;;;;;;;0.00;0.00;;;;;17.30;66.84;99142.78;5016224;28;8827;-83
2022/09/09 00:42:22;;;;;;;;;3.00;3.00;;;;;17.30;66.73;99144.63;5016017;28;8835;-83
2022/09/09 00:44:50;;;;;;;;;1.00;1.00;;;;;17.30;66.33;99145.47;5015406;28;8942;-83
2022/09/09 00:47:18;;;;;;;;;3.20;3.00;;;;;17.32;66.41;99139.91;5015498;28;8820;-83
2022/09/09 00:49:46;;;;;;;;;1.00;1.00;;;;;17.34;66.71;99136.00;5015842;28;8844;-83
2022/09/09 00:52:18;;;;;;;;;1.00;1.00;;;;;17.35;67.11;99132.28;5015876;28;8974;-83
2022/09/09 00:54:46;;;;;;;;;1.00;1.00;;;;;17.33;67.03;99130.81;5015569;28;8832;-84
2022/09/09 00:57:14;;;;;;;;;1.00;1.00;;;;;17.31;67.02;99136.34;5015707;28;8820;-84
2022/09/09 00:59:41;;;;;;;;;0.20;0.00;;;;;17.30;66.60;99133.88;5015995;28;9516;-83
2022/09/09 01:02:09;;;;;;;;;1.40;1.00;;;;;17.27;67.40;99127.00;5015909;28;8847;-83
2022/09/09 01:04:37;;;;;;;;;0.40;0.40;;;;;17.25;67.07;99131.72;5015950;28;8824;-83
2022/09/09 01:07:05;;;;;;;;;1.00;0.00;;;;;17.21;67.50;99134.94;5015928;28;8836;-83
2022/09/09 01:09:33;;;;;;;;;0.20;0.20;;;;;17.16;67.27;99135.50;5015585;28;8816;-83
2022/09/09 01:12:01;;;;;;;;;0.00;0.00;;;;;17.14;67.15;99147.47;5015607;28;8842;-83
2022/09/09 01:14:28;;;;;;;;;0.20;0.20;;;;;17.09;67.33;99144.50;5015543;28;8912;-83
2022/09/09 01:16:56;;;;;;;;;0.00;0.00;;;;;17.04;68.28;99136.13;5015464;28;8828;-83
2022/09/09 01:19:23;;;;;;;;;1.00;1.00;;;;;17.01;67.19;99126.56;5015639;28;8824;-83
2022/09/09 01:21:51;;;;;;;;;0.00;0.00;;;;;16.99;67.82;99136.69;5015367;28;8924;-83
2022/09/09 01:24:19;;;;;;;;;0.00;0.00;;;;;16.95;67.54;99127.28;5014837;28;8847;-83
2022/09/09 01:26:47;;;;;;;;;1.00;1.00;;;;;16.93;68.04;99134.72;5015613;28;8863;-83
2022/09/09 01:29:14;;;;;;;;;3.00;1.00;;;;;16.92;68.20;99140.28;5016044;28;8938;-83
2022/09/09 01:31:45;;;;;;;;;1.00;1.00;;;;;16.89;67.91;99144.19;5015276;28;8855;-83
2022/09/09 01:34:13;;;;;;;;;0.00;0.00;;;;;16.84;67.92;99132.28;5015343;28;9520;-83
2022/09/09 01:36:40;;;;;;;;;0.00;0.00;;;;;16.81;68.38;99135.34;5015202;28;8839;-83
2022/09/09 01:39:08;;;;;;;;;1.00;1.00;;;;;16.76;68.41;99133.19;5015251;28;8835;-83
2022/09/09 01:41:36;;;;;;;;;0.00;0.00;;;;;16.75;68.41;99136.91;5015413;28;8856;-83
2022/09/09 01:44:03;;;;;;;;;0.00;0.00;;;;;16.74;68.32;99140.63;5015187;28;8823;-83
2022/09/09 01:46:31;;;;;;;;;0.00;0.00;;;;;16.73;68.38;99133.56;5015085;28;8854;-83
2022/09/09 01:48:59;;;;;;;;;0.00;0.00;;;;;16.74;68.34;99134.38;5015649;28;8839;-83
2022/09/09 01:51:27;;;;;;;;;1.00;1.00;;;;;16.78;68.24;99124.97;5014918;28;8975;-83
2022/09/09 01:53:55;;;;;;;;;0.00;0.00;;;;;16.81;68.01;99128.13;5015108;28;8840;-83
2022/09/09 01:56:22;;;;;;;;;0.00;0.00;;;;;16.85;67.66;99120.53;5014864;28;8864;-83
2022/09/09 01:58:50;;;;;;;;;0.00;0.00;;;;;16.89;67.37;99119.97;5014752;28;8838;-83
2022/09/09 02:01:18;;;;;;;;;0.00;0.00;;;;;16.92;67.71;99119.59;5015259;28;8848;-83
2022/09/09 02:03:46;;;;;;;;;1.00;1.00;;;;;16.93;67.58;99115.88;5015613;28;9533;-83
2022/09/09 02:06:14;;;;;;;;;0.80;0.80;;;;;16.97;67.52;99119.91;5015384;28;8828;-83
2022/09/09 02:08:42;;;;;;;;;0.40;0.20;;;;;17.00;67.69;99121.41;5014994;28;8878;-83
2022/09/09 02:11:10;;;;;;;;;0.00;0.00;;;;;17.01;67.56;99125.75;5015008;28;8828;-83
2022/09/09 02:13:37;;;;;;;;;1.00;1.00;;;;;17.04;67.80;99125.38;5014946;28;8831;-83
2022/09/09 02:16:05;;;;;;;;;0.40;0.40;;;;;17.06;67.65;99118.81;5014682;28;8844;-84
2022/09/09 02:18:33;;;;;;;;;0.40;0.40;;;;;17.09;67.52;99118.41;5014874;28;8835;-83
2022/09/09 02:21:01;;;;;;;;;0.00;0.00;;;;;17.12;67.79;99126.16;5014730;28;9486;-83
2022/09/09 02:23:29;;;;;;;;;0.00;0.00;;;;;17.14;67.68;99124.09;5014985;28;8848;-83
2022/09/09 02:25:57;;;;;;;;;0.60;0.60;;;;;17.14;67.66;99126.78;5014477;28;9553;-83
2022/09/09 02:28:25;;;;;;;;;0.00;0.00;;;;;17.16;67.62;99121.22;5014794;28;8850;-83
2022/09/09 02:30:54;;;;;;;;;0.00;0.00;;;;;17.16;68.18;99138.19;5014408;28;8847;-83
2022/09/09 02:33:23;;;;;;;;;1.80;1.00;;;;;17.18;67.60;99127.25;5014406;28;8808;-83
2022/09/09 02:35:50;;;;;;;;;0.80;0.80;;;;;17.18;68.11;99125.41;5014457;28;8828;-83
2022/09/09 02:38:18;;;;;;;;;0.00;0.00;;;;;17.18;67.85;99122.72;5014613;28;8962;-83
2022/09/09 02:40:46;;;;;;;;;0.60;0.00;;;;;17.14;68.23;99124.09;5014408;28;8867;-83
2022/09/09 02:43:16;;;;;;;;;1.00;0.40;;;;;17.11;67.98;99120.94;5014399;28;8808;-84
2022/09/09 02:45:43;;;;;;;;;1.00;0.20;;;;;17.07;68.79;99128.53;5014627;28;8828;-83
2022/09/09 02:48:11;;;;;;;;;0.00;0.00;;;;;17.04;68.35;99125.38;5014578;28;8925;-83
2022/09/09 02:50:39;;;;;;;;;0.40;0.40;;;;;17.00;68.83;99129.47;5014416;28;8856;-83
2022/09/09 02:53:07;;;;;;;;;0.40;0.00;;;;;16.96;69.05;99123.63;5014556;28;8824;-83
2022/09/09 02:55:36;;;;;;;;;1.00;1.00;;;;;16.93;68.52;99132.03;5014420;28;8840;-83
2022/09/09 02:58:04;;;;;;;;;0.80;0.80;;;;;16.91;68.69;99128.69;5014140;28;8852;-83
2022/09/09 03:00:32;;;;;;;;;1.00;1.00;;;;;16.89;69.06;99128.03;5014313;28;8862;-83
2022/09/09 03:03:00;;;;;;;;;0.00;0.00;;;;;16.84;69.11;99130.44;5014861;28;8859;-83
2022/09/09 03:05:27;;;;;;;;;0.00;0.00;;;;;16.79;68.99;99126.63;5014913;28;9492;-83
2022/09/09 03:07:55;;;;;;;;;0.00;0.00;;;;;16.74;69.49;99137.94;5014538;28;8897;-83
2022/09/09 03:10:23;;;;;;;;;0.00;0.00;;;;;16.70;69.55;99133.09;5014106;28;8962;-83
2022/09/09 03:12:51;;;;;;;;;0.00;0.00;;;;;16.67;68.89;99131.59;5014391;28;8839;-83
2022/09/09 03:15:18;;;;;;;;;0.40;0.40;;;;;16.64;69.55;99142.69;5014588;28;8844;-83
2022/09/09 03:17:46;;;;;;;;;1.00;1.00;;;;;16.63;69.29;99132.13;5014250;28;8978;-83
2022/09/09 03:20:14;;;;;;;;;0.60;0.60;;;;;16.61;69.48;99140.38;5013875;28;8832;-83
2022/09/09 03:22:44;;;;;;;;;0.60;0.60;;;;;16.60;69.64;99144.09;5014079;28;8840;-83
2022/09/09 03:25:12;;;;;;;;;0.40;0.40;;;;;16.58;69.84;99138.06;5014089;28;8846;-84
2022/09/09 03:27:40;;;;;;;;;2.20;2.20;;;;;16.56;69.57;99134.69;5014256;28;8961;-83
2022/09/09 03:30:08;;;;;;;;;1.00;0.00;;;;;16.59;69.53;99137.03;5014638;28;8831;-83
2022/09/09 03:32:36;;;;;;;;;0.00;0.00;;;;;16.62;69.31;99136.66;5013988;28;8819;-83
2022/09/09 03:35:04;;;;;;;;;0.80;0.60;;;;;16.63;69.28;99122.19;5014539;28;8870;-83
2022/09/09 03:37:32;;;;;;;;;0.80;0.80;;;;;16.66;69.58;99129.94;5013841;28;8828;-83
2022/09/09 03:39:59;;;;;;;;;0.00;0.00;;;;;16.67;69.63;99120.84;5013929;28;8839;-83
2022/09/09 03:42:27;;;;;;;;;1.00;0.00;;;;;16.69;69.20;99126.00;5013777;28;8843;-83
2022/09/09 03:44:57;;;;;;;;;1.00;1.00;;;;;16.70;69.18;99122.34;5013240;28;8824;-83
2022/09/09 03:47:25;;;;;;;;;0.00;0.00;;;;;16.72;69.03;99126.50;5016750;28;8828;-83
2022/09/09 03:49:53;;;;;;;;;0.00;0.00;;;;;16.72;69.56;99125.66;5017546;28;8970;-83
2022/09/09 03:52:21;;;;;;;;;1.00;1.00;;;;;16.71;69.48;99119.44;5017130;28;8843;-83
2022/09/09 03:54:50;;;;;;;;;0.80;0.80;;;;;16.69;69.38;99113.41;5016670;28;8856;-83
2022/09/09 03:57:18;;;;;;;;;1.00;1.00;;;;;16.68;69.91;99118.97;5016584;28;8828;-83
2022/09/09 03:59:46;;;;;;;;;1.00;1.00;;;;;16.64;69.69;99123.06;5016915;28;8850;-83
2022/09/09 04:02:14;;;;;;;;;0.80;0.80;;;;;16.61;70.07;99124.25;5017079;28;8846;-83
2022/09/09 04:04:41;;;;;;;;;1.00;1.00;;;;;16.59;70.28;99125.44;5016593;28;8827;-82
2022/09/09 04:07:09;;;;;;;;;1.40;1.00;;;;;16.56;69.91;99120.44;5016815;28;8839;-83
2022/09/09 04:09:37;;;;;;;;;1.00;1.00;;;;;16.53;70.35;99132.38;5016486;28;8812;-83
2022/09/09 04:12:06;;;;;;;;;2.20;2.20;;;;;16.51;70.52;99129.03;5016895;28;8958;-83
2022/09/09 04:14:34;;;;;;;;;0.60;0.60;;;;;16.50;70.92;99127.34;5016546;28;8893;-83
2022/09/09 04:17:05;;;;;;;;;1.00;1.00;;;;;16.48;71.08;99126.69;5016551;28;8836;-83
2022/09/09 04:19:33;;;;;;;;;0.80;0.80;;;;;16.47;70.50;99126.88;5016651;28;8827;-83
2022/09/09 04:22:01;;;;;;;;;0.00;0.00;;;;;16.45;70.83;99127.06;5015774;28;8820;-83
2022/09/09 04:24:29;;;;;;;;;1.00;0.80;;;;;16.45;70.46;99124.38;5016145;28;8836;-83
2022/09/09 04:26:57;;;;;;;;;0.20;0.20;;;;;16.44;70.15;99128.06;5016709;28;8811;-83
2022/09/09 04:29:24;;;;;;;;;0.40;0.40;;;;;16.44;70.28;99124.53;5016248;28;8912;-83
2022/09/09 04:31:53;;;;;;;;;0.00;0.00;;;;;16.45;70.38;99129.75;5016771;28;8832;-83
2022/09/09 04:34:20;;;;;;;;;1.00;1.00;;;;;16.45;70.63;99127.06;5016129;28;8827;-83
2022/09/09 04:36:48;;;;;;;;;1.00;0.00;;;;;16.47;70.44;99127.72;5016360;28;8922;-83
2022/09/09 04:39:16;;;;;;;;;0.00;0.00;;;;;16.49;70.50;99132.91;5015664;28;8848;-83
2022/09/09 04:41:44;;;;;;;;;0.80;0.80;;;;;16.49;70.81;99122.97;5015916;28;8808;-83
2022/09/09 04:44:11;;;;;;;;;0.80;0.80;;;;;16.51;70.35;99123.66;5015869;28;8824;-83
2022/09/09 04:46:40;;;;;;;;;1.00;1.00;;;;;16.53;70.90;99120.78;5015921;28;8840;-83
2022/09/09 04:49:08;;;;;;;;;1.00;1.00;;;;;16.54;70.51;99125.97;5015428;28;8851;-83
2022/09/09 04:51:42;;;;;;;;;1.00;1.00;;;;;16.54;70.96;99125.97;5015721;28;8832;-84
2022/09/09 04:54:10;;;;;;;;;1.00;1.00;;;;;16.54;71.27;99131.34;5015633;28;8840;-83
2022/09/09 04:56:38;;;;;;;;;1.00;1.00;;;;;16.54;70.95;99125.13;5015589;28;8922;-83
2022/09/09 04:59:05;;;;;;;;;0.80;0.80;;;;;16.54;70.90;99125.97;5015106;28;8824;-83
2022/09/09 05:01:33;;;;;;;;;1.00;1.00;;;;;16.55;70.62;99124.97;5016122;28;8847;-83
2022/09/09 05:04:02;;;;;;;;;3.00;1.00;;;;;16.57;70.91;99124.78;5015693;28;8851;-83
2022/09/09 05:06:31;;;;;;;;;1.80;1.80;;;;;16.61;70.83;99126.09;5015629;28;8858;-83
2022/09/09 05:08:59;;;;;;;;;0.60;0.00;;;;;16.65;71.06;99127.41;5015125;28;8851;-83
2022/09/09 05:11:27;;;;;;;;;3.00;3.00;;;;;16.67;70.56;99123.53;5015234;28;8859;-83
2022/09/09 05:13:54;;;;;;;;;1.40;1.00;;;;;16.72;70.82;99126.50;5015422;28;8824;-83
2022/09/09 05:16:22;;;;;;;;;1.00;1.00;;;;;16.76;70.92;99133.19;5014633;28;8832;-83
2022/09/09 05:18:50;;;;;;;;;0.40;0.40;;;;;16.79;70.90;99132.81;5014953;28;8844;-83
2022/09/09 05:21:18;;;;;;;;;1.00;1.00;;;;;16.82;70.89;99142.38;5016190;28;8848;-83
2022/09/09 05:23:46;;;;;;;;;3.00;3.00;;;;;16.85;70.49;99133.97;5015370;28;8835;-83
2022/09/09 05:26:13;;;;;;;;;1.80;1.00;;;;;16.88;70.11;99133.59;5015226;28;8971;-83
2022/09/09 05:28:44;;;;;;;;;1.80;1.00;;;;;16.90;70.43;99135.09;5016074;28;8840;-83
2022/09/09 05:31:12;;;;;;;;;0.40;0.00;;;;;16.93;70.42;99134.72;5016383;28;8933;-83
2022/09/09 05:33:42;;;;;;;;;1.00;1.00;;;;;16.95;70.10;99140.75;5015132;28;8834;-83
2022/09/09 05:36:13;;;;;;;;;2.20;1.00;;;;;16.97;70.52;99132.50;5014982;28;8836;-83
2022/09/09 05:38:40;;;;;;;;;1.00;1.00;;;;;16.98;70.13;99137.72;5016108;28;8855;-83
2022/09/09 05:41:08;;;;;;;;;0.60;0.60;;;;;17.00;70.56;99132.97;5016212;28;9481;-83
2022/09/09 05:43:37;;;;;;;;;1.00;1.00;;;;;17.02;69.92;99127.41;5016011;28;8913;-85
2022/09/09 05:46:05;;;;;;;;;1.00;1.00;;;;;17.03;70.35;99135.31;5014756;28;8886;-83
2022/09/09 05:48:33;;;;;;;;;1.80;1.00;;;;;17.05;70.55;99132.44;5015056;28;8820;-83
2022/09/09 05:51:00;;;;;;;;;0.80;0.20;;;;;17.07;70.13;99139.31;5014539;28;8893;-84
2022/09/09 05:53:32;;;;;;;;;0.20;0.20;;;;;17.10;70.14;99138.91;5015078;28;8840;-83
2022/09/09 05:55:59;;;;;;;;;1.00;0.60;;;;;17.11;70.30;99143.31;5015282;28;8836;-83
2022/09/09 05:58:27;;;;;;;;;1.00;1.00;;;;;17.11;70.12;99132.56;5015068;28;8840;-83
2022/09/09 06:00:55;;;;;;;;;0.00;0.00;;;;;17.12;70.36;99131.53;5014305;28;8835;-83
2022/09/09 06:03:23;;;;;;;;;1.00;0.80;;;;;17.14;70.23;99131.31;5014923;28;8836;-83
2022/09/09 06:05:51;;;;;;;;;1.40;1.40;;;;;17.15;70.55;99133.84;5015392;28;9523;-84
2022/09/09 06:08:18;;;;;;;;;0.00;0.00;;;;;17.20;70.03;99133.28;5014524;28;8832;-83
2022/09/09 06:10:46;;;;;;;;;1.00;1.00;;;;;17.26;69.95;99132.56;5014624;28;8936;-83
2022/09/09 06:13:14;;;;;;;;;0.00;0.00;;;;;17.29;70.10;99146.47;5014568;28;9418;-84
2022/09/09 06:15:42;;;;;;;;;0.80;0.00;;;;;17.33;70.38;99136.19;5014345;28;8816;-83
2022/09/09 06:18:09;;;;;;;;;0.80;0.80;;;;;17.34;70.33;99141.41;5013911;28;9493;-83
2022/09/09 06:20:37;;;;;;;;;1.00;1.00;;;;;17.39;70.11;99140.88;5014699;28;8836;-83
2022/09/09 06:23:05;;;;;;;;;1.00;1.00;;;;;17.42;70.26;99140.50;5014272;28;8828;-84
2022/09/09 06:25:34;;;;;;;;;0.60;0.20;;;;;17.44;70.25;99139.28;5014719;28;8836;-84
2022/09/09 06:28:02;;;;;;;;;1.00;0.40;;;;;17.46;70.34;99136.41;5013890;28;8828;-83
2022/09/09 06:30:30;;;;;;;;;1.00;1.00;;;;;17.46;69.96;99137.25;5014358;28;8840;-83
2022/09/09 06:32:58;;;;;;;;;0.00;0.00;;;;;17.46;70.17;99134.53;5014019;28;8836;-83
2022/09/09 06:35:26;;;;;;;;;0.80;0.80;;;;;17.47;70.65;99140.78;5014702;28;8828;-83
2022/09/09 06:37:54;;;;;;;;;1.80;1.00;;;;;17.47;70.23;99149.69;5013364;28;8843;-84
2022/09/09 06:40:21;;;;;;;;;3.40;1.80;;;;;17.46;70.35;99144.50;5013815;28;8831;-83
2022/09/09 06:42:49;;;;;;;;;1.00;1.00;;;;;17.46;70.29;99147.19;5013634;28;8824;-83
2022/09/09 06:45:17;;;;;;;;;3.00;1.00;;;;;17.46;70.54;99139.13;5013467;28;8820;-84
2022/09/09 06:47:45;;;;;;;;;1.00;1.00;;;;;17.47;70.16;99149.69;5014149;28;8928;-83
2022/09/09 06:50:14;;;;;;;;;1.00;1.00;;;;;17.47;70.46;99141.59;5013836;28;8839;-84
2022/09/09 06:52:41;;;;;;;;;2.20;1.80;;;;;17.48;70.46;99140.56;5014005;28;8850;-83
2022/09/09 06:55:09;;;;;;;;;1.00;1.00;;;;;17.50;70.37;99146.63;5013820;28;8816;-83
2022/09/09 06:57:37;;;;;;;;;0.00;0.00;;;;;17.55;70.41;99152.28;5014286;28;9513;-83
2022/09/09 07:00:04;;;;;;;;;1.00;1.00;;;;;17.60;70.56;99159.81;5013889;28;8854;-83
2022/09/09 07:02:38;;;;;;;;;3.00;1.00;;;;;17.62;70.46;99158.59;5014389;28;8844;-83
2022/09/09 07:05:06;;;;;;;;;1.00;0.00;;;;;17.63;70.20;99154.88;5015692;28;9467;-83
2022/09/09 07:07:34;;;;;;;;;1.00;1.00;;;;;17.63;70.49;99154.88;5014635;28;9497;-84
2022/09/09 07:10:03;;;;;;;;;2.20;1.00;;;;;17.61;70.33;99151.53;5014877;28;9547;-83
2022/09/09 07:12:30;;;;;;;;;1.00;1.00;;;;;17.59;70.31;99158.13;5014587;28;8828;-83
2022/09/09 07:14:58;;;;;;;;;1.80;1.80;;;;;17.52;70.73;99155.34;5014700;28;8828;-84
2022/09/09 07:17:26;;;;;;;;;0.00;0.00;;;;;17.28;71.22;99165.50;5014331;28;8812;-83
2022/09/09 07:19:54;;;;;;;;;0.00;0.00;;;;;17.07;71.98;99165.34;5014269;28;8835;-83
2022/09/09 07:22:22;;;;;;;;;0.60;0.60;;;;;16.91;72.46;99162.81;5017312;28;8866;-83
2022/09/09 07:24:50;;;;;;;;;1.00;0.20;;;;;16.85;72.69;99161.69;5017051;28;8848;-82
2022/09/09 07:27:17;;;;;;;;;1.40;1.00;;;;;16.89;72.30;99170.22;5017018;28;8942;-84
2022/09/09 07:29:45;;;;;;;;;1.00;1.00;;;;;16.94;72.58;99165.97;5017691;28;8832;-83
2022/09/09 07:32:13;;;;;;;;;1.00;1.00;;;;;16.97;72.04;99159.41;5016693;28;8851;-82
2022/09/09 07:34:41;;;;;;;;;1.00;1.00;;;;;17.01;72.09;99161.53;5016620;28;8909;-83
2022/09/09 07:37:11;;;;;;;;;1.00;1.00;;;;;17.05;71.93;99165.56;5016857;28;8861;-83
2022/09/09 07:39:39;;;;;;;;;1.00;1.00;;;;;17.09;72.51;99174.91;5017012;28;8871;-83
2022/09/09 07:42:07;;;;;;;;;1.00;1.00;;;;;17.13;71.57;99168.19;5016242;28;8843;-83
2022/09/09 07:44:36;;;;;;;;;0.20;0.20;;;;;17.19;72.06;99169.28;5015580;28;8840;-83
2022/09/09 07:47:03;;;;;;;;;1.80;1.40;;;;;17.26;71.34;99173.78;5016127;28;8878;-83
2022/09/09 07:49:31;;;;;;;;;1.00;1.00;;;;;17.30;71.30;99171.56;5015766;28;8828;-83
2022/09/09 07:51:59;;;;;;;;;0.00;0.00;;;;;17.32;71.52;99173.03;5016422;28;8856;-82
2022/09/09 07:54:27;;;;;;;;;2.60;2.60;;;;;17.37;71.37;99162.59;5016369;28;8932;-83
2022/09/09 07:56:55;;;;;;;;;1.00;1.00;;;;;17.45;71.33;99167.88;5015889;28;8828;-83
2022/09/09 07:59:24;;;;;;;;;1.40;1.40;;;;;17.57;70.82;99174.50;5015566;28;9612;-83
2022/09/09 08:01:54;;;;;;;;;2.20;2.20;;;;;17.69;70.78;99173.00;5016444;28;8820;-84
2022/09/09 08:04:22;;;;;;;;;1.00;1.00;;;;;17.77;70.54;99167.50;5015877;28;8912;-83
2022/09/09 08:06:50;;;;;;;;;0.00;0.00;;;;;17.89;70.56;99168.72;5016049;28;8823;-83
2022/09/09 08:09:18;;;;;;;;;1.80;1.40;;;;;18.07;69.72;99163.75;5016006;28;8958;-83
2022/09/09 08:11:45;;;;;;;;;1.80;1.00;;;;;18.21;69.57;99171.00;5015861;28;8854;-83
2022/09/09 08:14:13;;;;;;;;;0.40;0.40;;;;;18.31;69.57;99173.44;5015471;28;8846;-83
2022/09/09 08:16:41;;;;;;;;;1.00;1.00;;;;;18.39;68.98;99176.84;5014434;28;8840;-83
2022/09/09 08:19:08;;;;;;;;;1.00;1.00;;;;;18.43;69.39;99174.63;5015047;28;8859;-83
2022/09/09 08:21:36;;;;;;;;;3.00;1.00;;;;;18.45;69.02;99180.66;5015413;28;8846;-85
2022/09/09 08:24:04;;;;;;;;;1.40;1.40;;;;;18.46;69.36;99175.06;5015468;28;8838;-83
2022/09/09 08:26:33;;;;;;;;;0.00;0.00;;;;;18.50;69.14;99173.66;5016355;28;8883;-83
2022/09/09 08:29:01;;;;;;;;;3.00;3.00;;;;;18.53;69.32;99175.13;5015465;28;8855;-83
2022/09/09 08:31:29;;;;;;;;;3.80;1.00;;;;;18.55;68.72;99163.13;5014747;28;8835;-83
2022/09/09 08:33:56;;;;;;;;;1.00;1.00;;;;;18.57;69.14;99177.25;5014181;28;9225;-84
2022/09/09 08:36:25;;;;;;;;;1.00;1.00;;;;;18.60;69.22;99170.66;5014933;28;8859;-83
2022/09/09 08:38:54;;;;;;;;;1.40;1.40;;;;;18.62;69.09;99172.13;5015719;28;9497;-84
2022/09/09 08:41:22;;;;;;;;;1.40;1.00;;;;;18.67;69.04;99175.06;5015491;28;8836;-84
2022/09/09 08:43:49;;;;;;;;;1.80;1.00;;;;;18.80;68.32;99174.34;5014938;28;8852;-85
2022/09/09 08:46:17;;;;;;;;;1.00;1.00;;;;;18.99;67.60;99174.56;5015441;28;9544;-83
2022/09/09 08:48:45;;;;;;;;;3.00;2.80;;;;;19.17;68.04;99185.72;5014864;28;9533;-85
2022/09/09 08:51:13;;;;;;;;;0.40;0.40;;;;;19.25;67.05;99174.81;5015121;28;8870;-84
2022/09/09 08:53:40;;;;;;;;;0.00;0.00;;;;;19.28;67.13;99176.28;5014979;28;8835;-83
2022/09/09 08:56:08;;;;;;;;;1.00;1.00;;;;;19.29;66.90;99178.81;5014873;28;9539;-83
2022/09/09 08:58:36;;;;;;;;;1.00;1.00;;;;;19.34;66.98;99187.13;5015737;28;9509;-83
2022/09/09 09:01:04;;;;;;;;;1.00;1.00;;;;;19.40;66.54;99178.25;5014345;28;8840;-84
2022/09/09 09:03:32;;;;;;;;;0.00;0.00;;;;;19.40;66.67;99185.50;5015501;28;8892;-86
2022/09/09 09:06:00;;;;;;;;;1.60;1.00;;;;;19.37;66.20;99181.38;5015648;28;8852;-84
2022/09/09 09:08:28;;;;;;;;;1.00;1.00;;;;;19.38;66.26;99193.84;5015781;28;8912;-84
2022/09/09 09:10:56;;;;;;;;;1.00;1.00;;;;;19.39;66.44;99184.69;5015039;28;8958;-83
2022/09/09 09:13:24;;;;;;;;;2.80;2.80;;;;;19.48;65.75;99178.09;5014942;28;8831;-84
2022/09/09 09:15:52;;;;;;;;;2.20;2.00;;;;;19.60;65.06;99178.41;5014888;28;8827;-84
2022/09/09 09:18:20;;;;;;;;;1.00;1.00;;;;;19.70;64.90;99182.41;5015117;28;8939;-83
2022/09/09 09:20:48;;;;;;;;;1.00;1.00;;;;;19.93;64.37;99188.38;5014112;28;8828;-85
2022/09/09 09:23:16;;;;;;;;;2.20;2.00;;;;;20.17;63.88;99181.66;5020006;28;8843;-84
2022/09/09 09:25:44;;;;;;;;;1.00;1.00;;;;;20.28;63.88;99181.94;5027562;28;8843;-85
2022/09/09 09:28:11;;;;;;;;;1.00;0.80;;;;;20.46;63.09;99176.78;5015161;28;8874;-84
2022/09/09 09:30:39;;;;;;;;;1.00;0.20;;;;;20.58;62.15;99183.28;5014190;28;8985;-86
2022/09/09 09:33:07;;;;;;;;;0.20;0.20;;;;;20.66;62.11;99177.69;5014662;28;8824;-86
2022/09/09 09:35:34;;;;;;;;;1.20;0.80;;;;;20.72;62.06;99174.16;5013374;28;8844;-83
2022/09/09 09:38:09;;;;;;;;;0.80;0.80;;;;;20.85;61.41;99176.88;5013875;28;8882;-84
2022/09/09 09:40:57;;;;;;;;;1.00;1.00;;;;;21.03;60.94;99172.56;5013655;28;8855;-84
2022/09/09 09:43:25;;;;;;;;;1.80;1.80;;;;;21.20;60.32;99176.50;5013571;28;8932;-85
2022/09/09 09:45:54;;;;;;;;;1.00;1.00;;;;;21.25;60.25;99175.91;5012953;28;8820;-85
2022/09/09 09:48:41;;;;;;;;;1.00;1.00;;;;;21.30;59.76;99179.66;5013035;28;8855;-83
2022/09/09 09:51:10;;;;;;;;;0.80;0.80;;;;;21.57;59.21;99166.91;5013773;28;8836;-83
2022/09/09 09:53:38;;;;;;;;;1.40;1.40;;;;;22.05;58.48;99174.56;5013057;28;8835;-84
2022/09/09 09:56:06;;;;;;;;;1.00;1.00;;;;;22.53;57.86;99166.88;5013444;28;8862;-83
2022/09/09 09:58:34;;;;;;;;;0.60;0.60;;;;;23.09;56.65;99162.31;5013517;28;8846;-84
2022/09/09 10:01:01;;;;;;;;;1.40;1.00;;;;;23.92;54.86;99164.53;5014114;28;8966;-84
2022/09/09 10:03:29;;;;;;;;;0.00;0.00;;;;;24.97;52.84;99162.13;5013909;28;8844;-84
2022/09/09 10:05:57;;;;;;;;;1.00;1.00;;;;;25.34;52.46;99171.84;5012202;28;8847;-84
2022/09/09 10:08:25;;;;;;;;;0.60;0.60;;;;;25.25;52.78;99167.81;5013566;28;8855;-83
2022/09/09 10:10:53;;;;;;;;;1.00;1.00;;;;;24.75;53.48;99180.06;5014054;28;8850;-83
2022/09/09 10:13:21;;;;;;;;;1.40;1.40;;;;;24.26;54.40;99177.53;5013454;28;8867;-83
2022/09/09 10:15:50;;;;;;;;;1.20;1.20;;;;;23.95;55.09;99177.66;5012732;28;8808;-83
2022/09/09 10:18:17;;;;;;;;;1.00;1.00;;;;;23.67;55.09;99171.88;5012986;28;9520;-84
2022/09/09 10:20:45;;;;;;;;;0.20;0.00;;;;;23.68;55.21;99174.34;5013860;28;8867;-83
2022/09/09 10:23:13;;;;;;;;;1.00;1.00;;;;;23.70;54.95;99171.41;5014014;28;8843;-83
2022/09/09 10:25:41;;;;;;;;;1.40;1.00;;;;;23.81;54.75;99168.78;5013754;28;8997;-84
2022/09/09 10:28:09;;;;;;;;;0.20;0.20;;;;;24.03;53.76;99172.78;5013456;28;8838;-84
2022/09/09 10:30:36;;;;;;;;;1.40;1.40;;;;;24.68;52.01;99173.88;5013240;28;8831;-85
2022/09/09 10:33:05;;;;;;;;;0.00;0.00;;;;;25.02;51.76;99159.53;5012524;28;8855;-85
2022/09/09 10:35:33;;;;;;;;;1.00;1.00;;;;;25.03;51.93;99166.66;5012232;28;8944;-83
2022/09/09 10:38:01;;;;;;;;;1.60;1.60;;;;;25.11;51.36;99164.41;5013454;28;8824;-84
2022/09/09 10:40:30;;;;;;;;;1.40;1.00;;;;;24.80;51.36;99164.66;5013120;28;8858;-84
2022/09/09 10:42:58;;;;;;;;;2.00;2.00;;;;;24.70;51.25;99169.00;5013705;28;8966;-84
2022/09/09 10:45:25;;;;;;;;;0.40;0.40;;;;;25.12;50.77;99152.47;5012839;28;8835;-83
2022/09/09 10:47:53;;;;;;;;;1.00;1.00;;;;;25.62;49.37;99147.44;5012983;28;8843;-85
2022/09/09 10:50:21;;;;;;;;;1.80;1.00;;;;;25.73;48.59;99134.59;5012055;28;8873;-84
2022/09/09 10:52:49;;;;;;;;;1.00;1.00;;;;;25.41;48.97;99146.09;5012056;28;8827;-83
2022/09/09 10:55:16;;;;;;;;;0.80;0.60;;;;;25.03;49.45;99150.28;5011072;28;8843;-83
2022/09/09 10:57:44;;;;;;;;;1.00;1.00;;;;;24.51;50.46;99145.59;5011800;28;8832;-83
2022/09/09 11:00:12;;;;;;;;;1.40;1.40;;;;;23.95;51.51;99153.19;5013381;28;8856;-84
2022/09/09 11:02:41;;;;;;;;;1.00;1.00;;;;;23.39;52.56;99147.03;5012573;28;8831;-84
2022/09/09 11:05:09;;;;;;;;;1.00;1.00;;;;;22.98;52.95;99150.28;5012085;28;8954;-84
2022/09/09 11:07:38;;;;;;;;;1.00;1.00;;;;;22.60;53.57;99162.22;5013199;28;8828;-83
2022/09/09 11:10:07;;;;;;;;;1.00;1.00;;;;;22.19;54.11;99170.75;5013302;28;9473;-83
2022/09/09 11:12:34;;;;;;;;;1.00;1.00;;;;;21.82;54.96;99168.78;5013159;28;8827;-83
2022/09/09 11:15:02;;;;;;;;;1.00;1.00;;;;;21.64;55.30;99175.88;5013467;28;8831;-87
2022/09/09 11:17:30;;;;;;;;;0.00;0.00;;;;;21.52;55.90;99181.09;5011468;28;8909;-83
2022/09/09 11:19:58;;;;;;;;;0.80;0.60;;;;;21.39;55.99;99183.81;5015385;28;8854;-83
2022/09/09 11:22:25;;;;;;;;;0.60;0.00;;;;;21.32;55.92;99207.38;5028144;28;8832;-86
2022/09/09 11:24:54;;;;;;;;;0.00;0.00;;;;;21.16;56.32;99199.66;5014071;28;8820;-84
2022/09/09 11:27:22;;;;;;;;;1.00;0.00;;;;;20.99;56.82;99192.97;5013399;28;8848;-83
2022/09/09 11:29:50;;;;;;;;;0.00;0.00;;;;;21.50;55.59;99196.72;5012844;28;8860;-83
2022/09/09 11:32:17;;;;;;;;;0.40;0.40;;;;;22.64;53.62;99177.03;5012714;28;8854;-83
2022/09/09 11:34:45;;;;;;;;;0.00;0.00;;;;;23.90;51.04;99175.63;5013358;28;8843;-83
2022/09/09 11:37:13;;;;;;;;;1.00;1.00;;;;;25.15;48.42;99157.44;5012749;28;8824;-84
2022/09/09 11:39:41;;;;;;;;;1.20;1.00;;;;;26.13;47.18;99157.38;5013407;28;8812;-83
2022/09/09 11:42:08;;;;;;;;;0.00;0.00;;;;;27.16;45.29;99158.09;5012910;28;8851;-84
2022/09/09 11:44:36;;;;;;;;;0.00;0.00;;;;;27.78;44.47;99149.53;5012942;28;8854;-84